Time;durP1;ratioP1;P1;durP2;ratioP2;P2;SDS_P1;SDS_P2;PMS_P1;PMS_P2;Temp;Humidity;BMP_temperature;BMP_pressure;BME280_temperature;BME280_humidity;BME280_pressure;Samples;Min_cycle;Max_cycle;Signal;HPM_P1;HPM_P2
2022/07/27 00:00:55;;;;;;;3.17;1.97;;;21.90;93.60;;;;;;5023810;28;20210;-66
2022/07/27 00:03:22;;;;;;;8.93;2.27;;;22.10;93.20;;;;;;5023580;28;20179;-68
2022/07/27 00:05:48;;;;;;;2.20;2.00;;;22.20;93.30;;;;;;5024036;28;20182;-67
2022/07/27 00:08:14;;;;;;;2.93;1.87;;;22.20;93.30;;;;;;5023360;28;20458;-67
2022/07/27 00:10:39;;;;;;;2.83;2.30;;;22.30;93.40;;;;;;5024252;28;20776;-65
2022/07/27 00:13:05;;;;;;;4.40;2.70;;;22.40;93.20;;;;;;5023336;28;20700;-65
2022/07/27 00:15:32;;;;;;;2.20;2.00;;;22.20;93.60;;;;;;5023533;28;20188;-65
2022/07/27 00:17:59;;;;;;;2.67;2.47;;;22.00;93.50;;;;;;5023467;28;20495;-65
2022/07/27 00:20:29;;;;;;;4.50;2.93;;;22.10;93.80;;;;;;5023560;28;20598;-66
2022/07/27 00:22:56;;;;;;;2.93;2.50;;;22.20;93.70;;;;;;5022965;28;20497;-66
2022/07/27 00:25:22;;;;;;;2.70;2.30;;;22.10;93.90;;;;;;5023554;28;20405;-66
2022/07/27 00:27:48;;;;;;;2.53;2.33;;;22.00;94.00;;;;;;5023197;28;20844;-66
2022/07/27 00:30:14;;;;;;;2.23;2.03;;;21.90;94.30;;;;;;5023231;28;20914;-66
2022/07/27 00:32:39;;;;;;;2.50;2.30;;;22.00;94.30;;;;;;5023619;28;20175;-66
2022/07/27 00:35:06;;;;;;;2.73;2.50;;;22.10;94.30;;;;;;5023400;28;20271;-66
2022/07/27 00:37:31;;;;;;;3.40;2.53;;;22.10;94.50;;;;;;5023092;28;20218;-66
2022/07/27 00:39:57;;;;;;;3.53;2.60;;;22.10;94.40;;;;;;5025441;28;20485;-66
2022/07/27 00:42:26;;;;;;;3.27;2.97;;;22.10;94.50;;;;;;5026924;28;20183;-66
2022/07/27 00:44:54;;;;;;;3.17;2.53;;;22.20;94.40;;;;;;5027087;28;20179;-66
2022/07/27 00:47:20;;;;;;;3.77;2.63;;;22.40;94.10;;;;;;5027014;28;20442;-65
2022/07/27 00:49:46;;;;;;;2.90;2.43;;;22.30;94.00;;;;;;5027200;28;20795;-66
2022/07/27 00:52:13;;;;;;;3.30;3.00;;;22.10;94.20;;;;;;5027201;28;20422;-67
2022/07/27 00:54:40;;;;;;;3.13;2.60;;;21.90;94.60;;;;;;5027581;28;20405;-65
2022/07/27 00:57:08;;;;;;;3.50;2.80;;;21.80;94.90;;;;;;5027540;28;20861;-67
2022/07/27 00:59:34;;;;;;;4.90;3.00;;;21.60;95.20;;;;;;5027298;28;20475;-66
2022/07/27 01:02:00;;;;;;;3.43;2.63;;;21.60;95.30;;;;;;5026342;28;20461;-68
2022/07/27 01:04:25;;;;;;;4.20;3.37;;;21.70;95.30;;;;;;5026842;28;20910;-67
2022/07/27 01:06:51;;;;;;;3.00;2.80;;;21.90;95.20;;;;;;5026335;28;20246;-67
2022/07/27 01:12:01;;;;;;;2.90;2.70;;;21.90;95.10;;;;;;5026206;28;20178;-66
2022/07/27 01:14:26;;;;;;;3.90;3.00;;;22.00;95.40;;;;;;5026164;28;20417;-66
2022/07/27 01:16:52;;;;;;;3.90;3.27;;;21.90;95.10;;;;;;5026843;28;20250;-66
2022/07/27 01:19:18;;;;;;;3.70;3.30;;;22.00;95.10;;;;;;5026210;28;20559;-67
2022/07/27 01:21:44;;;;;;;5.10;2.80;;;21.80;95.20;;;;;;5026632;28;20213;-67
2022/07/27 01:24:10;;;;;;;4.10;2.90;;;21.80;95.30;;;;;;5026348;28;20189;-66
2022/07/27 01:26:37;;;;;;;4.07;3.03;;;21.70;95.60;;;;;;5026665;28;20785;-67
2022/07/27 01:29:03;;;;;;;3.53;3.03;;;21.80;95.70;;;;;;5025938;28;20175;-64
2022/07/27 01:31:29;;;;;;;3.40;3.13;;;21.80;95.70;;;;;;5026301;28;20420;-66
2022/07/27 01:33:55;;;;;;;6.27;3.07;;;21.70;95.80;;;;;;5026402;28;20659;-66
2022/07/27 01:36:20;;;;;;;3.10;2.60;;;21.60;95.90;;;;;;5025835;28;20430;-67
2022/07/27 01:38:46;;;;;;;4.23;3.00;;;21.60;96.00;;;;;;5025685;28;20186;-67
2022/07/27 01:41:12;;;;;;;5.13;3.10;;;21.50;96.30;;;;;;5026127;28;20616;-67
2022/07/27 01:43:39;;;;;;;3.47;3.17;;;21.50;96.50;;;;;;5025722;28;20410;-66
2022/07/27 01:46:04;;;;;;;3.30;2.77;;;21.50;96.50;;;;;;5026274;28;20442;-66
2022/07/27 01:48:30;;;;;;;3.60;2.73;;;21.60;96.40;;;;;;5026183;28;20456;-65
2022/07/27 01:50:56;;;;;;;4.20;3.60;;;21.80;96.60;;;;;;5026078;28;20183;-66
2022/07/27 01:53:22;;;;;;;3.30;2.70;;;21.50;96.50;;;;;;5025617;28;20559;-66
2022/07/27 01:55:49;;;;;;;3.63;3.30;;;21.40;96.90;;;;;;5026126;28;20249;-66
2022/07/27 01:58:14;;;;;;;3.33;3.03;;;21.40;96.90;;;;;;5025721;28;20441;-65
2022/07/27 02:00:40;;;;;;;3.53;3.03;;;21.50;97.10;;;;;;5026096;28;20830;-67
2022/07/27 02:03:08;;;;;;;4.70;3.50;;;21.50;97.00;;;;;;5026212;28;20195;-68
2022/07/27 02:05:34;;;;;;;5.60;3.40;;;21.50;97.00;;;;;;5026262;28;20422;-68
2022/07/27 02:08:00;;;;;;;3.90;3.20;;;21.30;97.40;;;;;;5025956;28;20527;-67
2022/07/27 02:10:26;;;;;;;3.53;3.23;;;21.20;97.60;;;;;;5026867;28;20410;-67
2022/07/27 02:12:52;;;;;;;3.30;2.97;;;21.30;97.70;;;;;;5026826;28;20175;-67
2022/07/27 02:15:20;;;;;;;3.40;3.10;;;21.10;97.90;;;;;;5026351;28;20179;-66
2022/07/27 02:17:47;;;;;;;3.50;3.20;;;21.10;98.00;;;;;;5026408;28;20299;-68
2022/07/27 02:20:15;;;;;;;6.70;3.60;;;21.20;97.90;;;;;;5027101;28;20553;-68
2022/07/27 02:22:41;;;;;;;3.67;3.37;;;21.20;98.00;;;;;;5026781;28;20432;-67
2022/07/27 02:25:08;;;;;;;3.40;3.10;;;21.30;98.20;;;;;;5027018;28;20562;-66
2022/07/27 02:27:33;;;;;;;3.50;3.20;;;21.20;98.10;;;;;;5026355;28;20481;-67
2022/07/27 02:29:59;;;;;;;3.20;2.90;;;21.00;98.50;;;;;;5034681;28;20414;-66
2022/07/27 02:32:25;;;;;;;4.93;3.17;;;21.10;98.50;;;;;;5038841;28;20465;-66
2022/07/27 02:34:51;;;;;;;7.80;2.93;;;21.10;98.60;;;;;;5035587;28;20480;-66
2022/07/27 02:37:16;;;;;;;3.87;3.57;;;21.00;98.80;;;;;;5035964;28;20434;-68
2022/07/27 02:39:42;;;;;;;3.90;3.50;;;21.00;99.10;;;;;;5036863;28;20652;-67
2022/07/27 02:42:08;;;;;;;7.17;4.10;;;20.90;99.30;;;;;;5038186;28;20217;-67
2022/07/27 02:44:34;;;;;;;5.03;2.90;;;20.80;99.50;;;;;;5036394;28;20195;-67
2022/07/27 02:46:59;;;;;;;3.20;2.90;;;20.90;99.60;;;;;;5036358;28;20192;-67
2022/07/27 02:49:25;;;;;;;5.00;3.43;;;20.70;99.90;;;;;;5029724;28;20186;-67
2022/07/27 02:51:52;;;;;;;4.10;3.10;;;20.60;99.90;;;;;;5036007;28;20187;-68
2022/07/27 02:54:19;;;;;;;9.53;3.53;;;20.60;99.90;;;;;;5031309;28;20592;-66
2022/07/27 02:56:45;;;;;;;4.20;3.20;;;20.70;99.90;;;;;;5024946;28;20490;-68
2022/07/27 02:59:10;;;;;;;4.37;2.90;;;20.70;99.90;;;;;;5024277;28;20503;-67
2022/07/27 03:01:36;;;;;;;3.63;3.30;;;20.70;99.90;;;;;;5024058;28;20810;-68
2022/07/27 03:04:02;;;;;;;3.40;2.87;;;20.70;99.90;;;;;;5024443;28;20170;-67
2022/07/27 03:06:28;;;;;;;3.30;3.03;;;20.70;99.90;;;;;;5024284;28;20450;-67
2022/07/27 03:08:54;;;;;;;4.53;3.27;;;20.60;99.90;;;;;;5024154;28;20410;-67
2022/07/27 03:11:19;;;;;;;4.13;3.73;;;20.40;99.90;;;;;;5023825;28;20183;-68
2022/07/27 03:13:45;;;;;;;9.40;3.57;;;20.50;99.90;;;;;;5024128;28;20179;-68
2022/07/27 03:16:11;;;;;;;3.63;3.13;;;20.50;99.90;;;;;;5023934;28;20206;-67
2022/07/27 03:18:37;;;;;;;4.43;3.70;;;20.60;99.90;;;;;;5024544;28;20421;-66
2022/07/27 03:21:03;;;;;;;4.10;3.70;;;20.80;99.90;;;;;;5024352;28;20277;-68
2022/07/27 03:23:29;;;;;;;4.10;3.70;;;20.90;99.90;;;;;;5024035;28;20176;-67
2022/07/27 03:25:54;;;;;;;4.30;3.60;;;20.70;99.90;;;;;;5023743;28;20414;-67
2022/07/27 03:28:20;;;;;;;4.40;4.00;;;20.50;99.90;;;;;;5024019;28;20268;-68
2022/07/27 03:30:45;;;;;;;4.53;3.63;;;20.60;99.90;;;;;;5023964;28;20190;-67
2022/07/27 03:33:11;;;;;;;5.03;3.50;;;20.80;99.90;;;;;;5023935;28;20180;-68
2022/07/27 03:35:36;;;;;;;6.43;3.80;;;20.60;99.90;;;;;;5024127;28;20277;-67
2022/07/27 03:38:02;;;;;;;5.73;3.73;;;20.60;99.90;;;;;;5023351;28;20723;-67
2022/07/27 03:40:30;;;;;;;5.33;3.70;;;20.40;99.90;;;;;;5023758;28;20207;-67
2022/07/27 03:42:56;;;;;;;4.83;3.43;;;20.30;99.90;;;;;;5023213;28;20659;-68
2022/07/27 03:45:22;;;;;;;5.60;3.10;;;20.30;99.90;;;;;;5023820;28;20409;-67
2022/07/27 03:47:47;;;;;;;4.47;4.07;;;20.30;99.90;;;;;;5024028;28;20269;-68
2022/07/27 03:50:13;;;;;;;3.70;3.40;;;20.30;99.90;;;;;;5034142;22;20247;-68
2022/07/27 03:52:38;;;;;;;5.30;3.83;;;20.40;99.90;;;;;;5004076;28;20176;-68
2022/07/27 03:55:05;;;;;;;3.90;3.60;;;20.20;99.90;;;;;;5005433;28;20179;-68
2022/07/27 03:57:30;;;;;;;4.30;3.80;;;20.20;99.90;;;;;;5012694;28;20180;-68
2022/07/27 03:59:56;;;;;;;5.20;4.07;;;20.20;99.90;;;;;;5003517;28;20497;-68
2022/07/27 04:02:21;;;;;;;5.97;3.80;;;20.20;99.90;;;;;;5004075;28;20194;-68
2022/07/27 04:04:47;;;;;;;5.93;3.90;;;20.10;99.90;;;;;;5003570;28;20180;-66
2022/07/27 04:07:12;;;;;;;5.07;4.20;;;20.10;99.90;;;;;;5003996;28;20172;-68
2022/07/27 04:09:38;;;;;;;3.73;3.43;;;20.00;99.90;;;;;;5003900;28;20293;-67
2022/07/27 04:12:04;;;;;;;4.60;4.20;;;20.10;99.90;;;;;;5003991;28;20182;-68
2022/07/27 04:14:30;;;;;;;5.00;4.10;;;20.20;99.90;;;;;;5005031;28;20172;-68
2022/07/27 04:16:55;;;;;;;4.93;4.50;;;20.10;99.90;;;;;;5007963;28;20238;-68
2022/07/27 04:19:21;;;;;;;4.40;4.00;;;20.00;99.90;;;;;;4989746;28;20326;-67
2022/07/27 04:21:46;;;;;;;4.30;3.90;;;20.20;99.90;;;;;;5007820;28;20195;-67
2022/07/27 04:24:12;;;;;;;4.37;4.07;;;20.10;99.90;;;;;;5007920;28;20676;-68
2022/07/27 04:26:38;;;;;;;4.53;3.93;;;20.10;99.90;;;;;;5007912;28;20187;-68
2022/07/27 04:29:03;;;;;;;4.13;3.73;;;20.10;99.90;;;;;;5007332;28;20211;-67
2022/07/27 04:31:29;;;;;;;6.13;3.80;;;20.20;99.90;;;;;;5007544;28;20188;-68
2022/07/27 04:33:55;;;;;;;4.50;4.10;;;20.00;99.90;;;;;;5007632;28;20188;-67
2022/07/27 04:36:20;;;;;;;4.03;3.70;;;19.80;99.90;;;;;;5007139;28;20198;-68
2022/07/27 04:38:46;;;;;;;4.50;4.10;;;19.90;99.90;;;;;;5007360;28;20666;-67
2022/07/27 04:41:11;;;;;;;3.90;3.60;;;19.90;99.90;;;;;;5007420;28;20401;-67
2022/07/27 04:43:37;;;;;;;4.60;4.20;;;20.10;99.90;;;;;;5007175;28;20176;-67
2022/07/27 04:46:03;;;;;;;6.07;4.57;;;20.10;99.90;;;;;;5007203;28;20263;-68
2022/07/27 04:48:32;;;;;;;5.20;3.90;;;20.10;99.90;;;;;;5005823;28;20418;-68
2022/07/27 04:50:57;;;;;;;4.53;4.13;;;20.10;99.90;;;;;;5006876;28;20497;-68
2022/07/27 04:53:23;;;;;;;4.50;4.10;;;20.10;99.90;;;;;;5007014;28;20505;-67
2022/07/27 04:55:49;;;;;;;5.17;3.97;;;20.30;99.90;;;;;;4989381;28;20184;-68
2022/07/27 04:58:15;;;;;;;4.73;4.43;;;20.10;99.90;;;;;;5007293;28;20186;-68
2022/07/27 05:00:42;;;;;;;4.80;4.40;;;20.10;99.90;;;;;;5006824;28;20211;-68
2022/07/27 05:03:08;;;;;;;6.20;4.80;;;20.10;99.90;;;;;;5006859;28;20425;-67
2022/07/27 05:05:34;;;;;;;11.27;5.30;;;20.10;99.90;;;;;;5006650;28;20793;-67
2022/07/27 05:08:00;;;;;;;4.73;4.33;;;20.10;99.90;;;;;;5007057;28;20425;-67
2022/07/27 05:10:25;;;;;;;7.80;4.47;;;20.00;99.90;;;;;;5006674;28;20370;-67
2022/07/27 05:12:51;;;;;;;6.07;4.83;;;20.00;99.90;;;;;;5006759;28;20212;-68
2022/07/27 05:15:17;;;;;;;4.67;4.33;;;20.10;99.90;;;;;;5006401;28;20176;-68
2022/07/27 05:17:43;;;;;;;4.87;4.40;;;20.10;99.90;;;;;;5006281;28;20191;-68
2022/07/27 05:20:10;;;;;;;5.40;4.83;;;20.30;99.90;;;;;;5005564;28;20431;-67
2022/07/27 05:22:35;;;;;;;6.20;4.67;;;20.20;99.90;;;;;;5006677;28;20191;-67
2022/07/27 05:25:01;;;;;;;10.03;5.40;;;20.10;99.90;;;;;;5006134;28;21119;-68
2022/07/27 05:27:27;;;;;;;7.53;5.20;;;20.20;99.90;;;;;;5006313;28;20179;-67
2022/07/27 05:29:52;;;;;;;4.53;4.17;;;20.40;99.90;;;;;;5006122;28;20196;-66
2022/07/27 05:32:18;;;;;;;5.07;4.53;;;20.40;99.90;;;;;;5005786;28;20180;-67
2022/07/27 05:34:44;;;;;;;5.27;4.80;;;20.10;99.90;;;;;;5005607;28;20626;-67
2022/07/27 05:37:11;;;;;;;8.17;4.77;;;20.10;99.90;;;;;;5006245;28;20176;-67
2022/07/27 05:39:37;;;;;;;4.40;4.00;;;20.20;99.90;;;;;;5006001;28;20581;-67
2022/07/27 05:42:03;;;;;;;7.30;4.87;;;20.30;99.90;;;;;;5006012;28;20478;-67
2022/07/27 05:44:29;;;;;;;5.57;5.07;;;20.20;99.90;;;;;;5005522;28;20451;-65
2022/07/27 05:46:55;;;;;;;5.20;4.70;;;20.10;99.90;;;;;;5006222;28;20429;-66
2022/07/27 05:49:21;;;;;;;5.50;4.93;;;20.10;99.90;;;;;;5005477;28;20211;-65
2022/07/27 05:51:47;;;;;;;7.03;5.60;;;20.10;99.90;;;;;;5006162;28;20900;-67
2022/07/27 05:54:12;;;;;;;8.77;4.57;;;20.10;99.90;;;;;;5005910;28;20612;-67
2022/07/27 05:56:38;;;;;;;5.10;4.60;;;20.10;99.90;;;;;;5006512;28;20190;-68
2022/07/27 05:59:04;;;;;;;6.27;5.60;;;20.30;99.90;;;;;;5005799;28;20715;-67
2022/07/27 06:01:29;;;;;;;5.17;4.67;;;20.40;99.90;;;;;;5005588;28;20196;-66
2022/07/27 06:03:55;;;;;;;5.80;4.83;;;20.50;99.90;;;;;;5005948;28;20180;-67
2022/07/27 06:09:05;;;;;;;5.57;4.70;;;20.30;99.90;;;;;;5005525;28;20211;-67
2022/07/27 06:11:31;;;;;;;5.83;5.23;;;20.60;99.90;;;;;;4993954;28;20415;-68
2022/07/27 06:13:56;;;;;;;5.20;4.70;;;20.50;99.90;;;;;;4968387;28;20434;-68
2022/07/27 06:16:22;;;;;;;6.17;5.33;;;20.50;99.90;;;;;;5005445;28;20194;-67
2022/07/27 06:18:48;;;;;;;6.93;5.50;;;20.50;99.90;;;;;;5005759;28;20206;-68
2022/07/27 06:21:13;;;;;;;4.70;4.40;;;20.40;99.90;;;;;;5004782;28;20195;-68
2022/07/27 06:23:39;;;;;;;5.80;4.57;;;20.40;99.90;;;;;;4987524;28;20267;-68
2022/07/27 06:26:05;;;;;;;4.90;4.47;;;20.20;99.90;;;;;;5004709;28;20625;-67
2022/07/27 06:28:30;;;;;;;5.53;4.70;;;20.20;99.90;;;;;;5005087;28;20180;-68
2022/07/27 06:30:56;;;;;;;5.27;4.77;;;20.10;99.90;;;;;;5005201;28;20196;-68
2022/07/27 06:33:28;;;;;;;6.80;5.63;;;20.40;99.90;;;;;;5005428;28;20253;-68
2022/07/27 06:35:56;;;;;;;5.80;5.33;;;20.40;99.90;;;;;;5004792;28;20187;-67
2022/07/27 06:38:21;;;;;;;6.53;5.20;;;20.30;99.90;;;;;;5004705;28;20426;-68
2022/07/27 06:40:51;;;;;;;5.20;4.77;;;20.10;99.90;;;;;;5004835;28;20454;-67
2022/07/27 06:43:21;;;;;;;6.60;5.00;;;20.20;99.90;;;;;;5005216;28;20220;-68
2022/07/27 06:45:47;;;;;;;4.70;4.30;;;20.40;99.90;;;;;;5005102;28;20791;-67
2022/07/27 06:48:13;;;;;;;7.10;5.10;;;20.60;99.90;;;;;;5004346;28;20439;-66
2022/07/27 06:50:39;;;;;;;7.03;6.33;;;20.70;99.90;;;;;;5004452;28;20560;-67
2022/07/27 06:53:04;;;;;;;6.43;5.03;;;20.90;99.90;;;;;;5004789;28;20180;-67
2022/07/27 06:55:30;;;;;;;6.10;5.60;;;20.80;99.90;;;;;;5004781;28;20182;-69
2022/07/27 06:57:56;;;;;;;5.47;4.90;;;20.80;99.90;;;;;;5004683;28;20188;-68
2022/07/27 07:00:21;;;;;;;4.90;4.50;;;20.90;99.90;;;;;;5004552;28;20214;-68
2022/07/27 07:02:56;;;;;;;5.90;5.10;;;20.60;99.90;;;;;;5004715;28;20637;-67
2022/07/27 07:05:22;;;;;;;4.80;4.40;;;20.80;99.90;;;;;;5004854;28;20183;-68
2022/07/27 07:07:48;;;;;;;5.40;4.90;;;21.20;99.90;;;;;;5004808;28;20498;-67
2022/07/27 07:10:14;;;;;;;6.53;5.30;;;21.30;99.90;;;;;;5004674;28;21082;-68
2022/07/27 07:12:40;;;;;;;5.40;5.00;;;21.60;99.90;;;;;;5004418;28;20964;-67
2022/07/27 07:15:06;;;;;;;5.00;4.60;;;21.60;99.90;;;;;;5003531;28;20508;-67
2022/07/27 07:17:32;;;;;;;4.80;4.40;;;21.10;99.90;;;;;;5004324;28;20419;-67
2022/07/27 07:19:58;;;;;;;4.90;4.40;;;20.80;99.90;;;;;;5002927;28;20448;-68
2022/07/27 07:22:24;;;;;;;4.90;4.40;;;20.90;99.90;;;;;;5004011;28;20554;-69
2022/07/27 07:24:50;;;;;;;4.93;4.50;;;21.20;99.90;;;;;;5004717;28;20645;-69
2022/07/27 07:27:18;;;;;;;4.80;4.50;;;21.30;99.90;;;;;;5004407;28;20423;-68
2022/07/27 07:29:43;;;;;;;4.60;4.10;;;21.60;99.90;;;;;;5004444;28;20230;-70
2022/07/27 07:32:09;;;;;;;4.80;4.33;;;22.00;99.90;;;;;;5004315;28;21465;-68
2022/07/27 07:34:35;;;;;;;8.10;4.80;;;22.20;99.90;;;;;;5004303;28;20233;-69
2022/07/27 07:37:00;;;;;;;4.70;4.33;;;21.70;99.90;;;;;;5004459;28;20245;-67
2022/07/27 07:39:26;;;;;;;5.40;4.33;;;21.70;99.90;;;;;;5004735;28;20200;-67
2022/07/27 07:41:52;;;;;;;6.00;5.20;;;22.10;99.90;;;;;;5004237;28;20195;-69
2022/07/27 07:44:18;;;;;;;7.43;4.93;;;22.20;99.90;;;;;;5004377;28;20712;-66
2022/07/27 07:46:43;;;;;;;6.07;4.87;;;21.90;99.90;;;;;;5004604;28;20184;-68
2022/07/27 07:49:09;;;;;;;6.90;5.27;;;21.80;99.90;;;;;;5004041;28;20596;-68
2022/07/27 07:51:35;;;;;;;6.70;4.47;;;22.00;99.90;;;;;;5004437;28;20187;-68
2022/07/27 07:54:01;;;;;;;6.20;5.30;;;21.70;99.90;;;;;;5004232;28;20176;-68
2022/07/27 07:56:26;;;;;;;4.80;4.40;;;21.80;99.90;;;;;;5004344;28;20422;-68
2022/07/27 07:58:52;;;;;;;4.57;4.27;;;22.30;99.90;;;;;;5003869;28;20218;-67
2022/07/27 08:01:18;;;;;;;5.80;5.30;;;22.60;99.90;;;;;;5004164;28;20202;-67
2022/07/27 08:03:43;;;;;;;5.63;5.13;;;22.50;99.90;;;;;;5003866;28;20184;-68
2022/07/27 08:06:09;;;;;;;5.00;4.30;;;22.20;99.90;;;;;;5003494;28;20181;-68
2022/07/27 08:08:35;;;;;;;6.37;5.10;;;22.30;99.90;;;;;;5004011;28;20188;-67
2022/07/27 08:11:00;;;;;;;5.53;4.10;;;22.20;99.90;;;;;;5004171;28;20561;-68
2022/07/27 08:13:26;;;;;;;6.27;5.13;;;22.40;99.90;;;;;;5004086;28;20179;-68
2022/07/27 08:15:52;;;;;;;5.53;5.13;;;22.60;99.90;;;;;;5004045;28;20198;-67
2022/07/27 08:18:18;;;;;;;5.03;4.50;;;22.60;99.90;;;;;;5004172;28;20191;-68
2022/07/27 08:20:44;;;;;;;4.97;4.47;;;22.50;99.90;;;;;;5003340;28;20975;-68
2022/07/27 08:23:11;;;;;;;5.23;4.83;;;22.50;99.90;;;;;;5003944;28;20454;-67
2022/07/27 08:25:37;;;;;;;5.07;4.57;;;22.70;99.90;;;;;;5003752;28;20551;-68
2022/07/27 08:28:04;;;;;;;4.80;4.40;;;22.70;99.90;;;;;;5003796;28;20418;-68
2022/07/27 08:30:30;;;;;;;9.00;4.60;;;22.50;99.90;;;;;;5003711;28;20211;-66
2022/07/27 08:32:58;;;;;;;4.80;4.40;;;22.80;99.90;;;;;;5003496;28;20433;-67
2022/07/27 08:35:24;;;;;;;5.13;4.63;;;22.90;99.90;;;;;;5003432;28;20188;-68
2022/07/27 08:37:50;;;;;;;5.97;4.67;;;22.80;99.90;;;;;;5003735;28;20792;-69
2022/07/27 08:40:16;;;;;;;9.83;4.50;;;22.90;99.90;;;;;;4998987;28;20445;-69
2022/07/27 08:42:42;;;;;;;4.80;4.33;;;23.30;99.90;;;;;;5003962;28;20415;-69
2022/07/27 08:45:11;;;;;;;5.20;4.70;;;23.80;99.90;;;;;;5003459;28;20195;-68
2022/07/27 08:47:38;;;;;;;7.10;4.73;;;23.20;99.90;;;;;;5003516;28;20505;-66
2022/07/27 08:50:21;;;;;;;5.17;4.70;;;23.10;99.90;;;;;;5003274;28;20828;-68
2022/07/27 08:52:49;;;;;;;6.37;5.33;;;23.20;99.90;;;;;;5003756;28;20418;-69
2022/07/27 08:55:15;;;;;;;5.20;4.70;;;23.20;99.90;;;;;;5003543;28;20430;-67
2022/07/27 08:57:41;;;;;;;5.07;4.67;;;23.40;99.90;;;;;;5003535;28;20415;-68
2022/07/27 09:00:07;;;;;;;5.77;4.90;;;23.60;99.90;;;;;;5004025;28;21549;-68
2022/07/27 09:02:33;;;;;;;5.30;4.80;;;23.60;99.90;;;;;;5007129;28;20589;-68
2022/07/27 09:04:59;;;;;;;4.57;4.20;;;22.90;99.90;;;;;;5006655;28;20407;-68
2022/07/27 09:07:30;;;;;;;5.27;4.77;;;23.20;99.90;;;;;;5007081;28;20417;-69
2022/07/27 09:09:56;;;;;;;5.00;4.50;;;23.20;99.90;;;;;;5007165;28;20355;-69
2022/07/27 09:12:27;;;;;;;5.57;4.50;;;23.30;99.90;;;;;;5007171;28;20858;-68
2022/07/27 09:15:09;;;;;;;7.67;4.60;;;23.00;99.90;;;;;;5006035;28;20171;-70
2022/07/27 09:17:36;;;;;;;5.27;4.87;;;23.20;99.90;;;;;;5007253;28;20506;-70
2022/07/27 09:20:07;;;;;;;5.43;4.50;;;23.40;99.90;;;;;;5006270;28;20439;-69
2022/07/27 09:22:44;;;;;;;4.87;4.47;;;23.50;99.90;;;;;;5006654;28;20504;-68
2022/07/27 09:25:15;;;;;;;6.80;5.13;;;23.60;99.90;;;;;;5006775;28;20403;-68
2022/07/27 09:27:42;;;;;;;5.60;5.10;;;23.50;99.90;;;;;;5006416;28;20844;-69
2022/07/27 09:30:14;;;;;;;6.73;5.27;;;23.60;99.90;;;;;;5006025;28;20431;-68
2022/07/27 09:32:55;;;;;;;6.93;5.03;;;23.60;99.90;;;;;;5006040;28;20423;-69
2022/07/27 09:35:29;;;;;;;4.73;4.33;;;23.60;99.90;;;;;;5006122;28;20412;-69
2022/07/27 09:38:15;;;;;;;5.10;4.60;;;23.70;99.90;;;;;;4992971;28;20905;-70
2022/07/27 09:40:41;;;;;;;8.03;5.00;;;23.60;99.90;;;;;;5006095;28;20826;-69
2022/07/27 09:43:09;;;;;;;5.50;5.00;;;23.50;99.90;;;;;;5005951;28;20454;-68
2022/07/27 09:45:37;;;;;;;5.00;3.90;;;23.50;99.90;;;;;;5006100;28;20180;-68
2022/07/27 09:48:07;;;;;;;6.33;5.67;;;23.40;99.90;;;;;;5006242;28;20422;-67
2022/07/27 09:50:33;;;;;;;4.80;4.40;;;23.70;99.90;;;;;;5005674;28;20462;-68
2022/07/27 09:53:22;;;;;;;5.63;5.13;;;23.90;99.90;;;;;;5005890;28;20415;-67
2022/07/27 09:55:59;;;;;;;5.30;4.80;;;23.60;99.90;;;;;;5005971;28;20743;-67
2022/07/27 09:58:49;;;;;;;5.13;4.13;;;23.80;99.90;;;;;;5005956;28;20485;-67
2022/07/27 10:01:20;;;;;;;4.80;4.30;;;23.90;99.80;;;;;;5005820;28;20537;-67
2022/07/27 10:03:48;;;;;;;5.40;4.83;;;24.50;99.40;;;;;;5005762;28;20486;-67
2022/07/27 10:06:14;;;;;;;5.17;4.77;;;24.90;99.00;;;;;;5005577;28;20421;-70
2022/07/27 10:08:43;;;;;;;4.23;3.93;;;24.70;98.10;;;;;;5004684;28;20419;-67
2022/07/27 10:11:09;;;;;;;7.17;4.80;;;24.20;98.80;;;;;;5005985;28;20658;-68
2022/07/27 10:13:35;;;;;;;5.30;4.47;;;24.20;98.80;;;;;;5005495;28;20415;-68
2022/07/27 10:16:03;;;;;;;4.90;4.40;;;24.10;98.50;;;;;;5005504;28;20411;-69
2022/07/27 10:18:36;;;;;;;6.10;4.80;;;24.30;99.10;;;;;;5005767;28;20415;-69
2022/07/27 10:21:10;;;;;;;4.93;4.17;;;24.70;98.20;;;;;;5005357;28;20470;-68
2022/07/27 10:23:38;;;;;;;5.20;4.53;;;25.10;97.90;;;;;;5005593;28;20915;-68
2022/07/27 10:26:23;;;;;;;5.90;4.67;;;25.00;97.80;;;;;;5005460;28;20415;-68
2022/07/27 10:28:56;;;;;;;7.97;4.27;;;24.90;98.30;;;;;;5005212;28;20430;-67
2022/07/27 10:31:25;;;;;;;4.70;4.40;;;25.40;97.60;;;;;;5004973;28;20398;-68
2022/07/27 10:33:55;;;;;;;4.80;4.50;;;25.40;97.20;;;;;;5005827;28;20418;-68
2022/07/27 10:36:30;;;;;;;5.80;4.90;;;25.70;96.90;;;;;;4996139;28;20927;-69
2022/07/27 10:39:02;;;;;;;5.17;4.70;;;25.50;96.40;;;;;;5005163;28;20450;-68
2022/07/27 10:41:33;;;;;;;4.23;3.80;;;25.40;96.20;;;;;;5004453;28;20457;-68
2022/07/27 10:44:37;;;;;;;4.63;4.33;;;25.50;95.90;;;;;;5005059;28;20457;-68
2022/07/27 10:47:04;;;;;;;6.17;4.87;;;25.10;96.20;;;;;;5004653;28;20454;-68
2022/07/27 10:49:34;;;;;;;4.67;4.27;;;24.80;96.80;;;;;;5004867;28;20458;-68
2022/07/27 10:52:01;;;;;;;6.50;4.20;;;25.20;96.40;;;;;;4986867;28;20454;-68
2022/07/27 10:54:37;;;;;;;4.87;4.40;;;25.30;96.40;;;;;;5005196;28;20418;-68
2022/07/27 10:57:05;;;;;;;4.57;4.17;;;25.60;95.30;;;;;;5004693;28;20403;-69
2022/07/27 10:59:43;;;;;;;4.20;3.80;;;25.80;95.40;;;;;;4995818;28;20451;-68
2022/07/27 11:02:11;;;;;;;3.73;3.43;;;26.00;94.20;;;;;;4986763;28;20564;-69
2022/07/27 11:04:48;;;;;;;4.40;3.80;;;26.00;93.10;;;;;;5004931;28;20425;-70
2022/07/27 11:07:19;;;;;;;4.50;4.00;;;26.40;92.70;;;;;;5003848;28;20414;-69
2022/07/27 11:09:47;;;;;;;3.70;3.40;;;26.70;92.50;;;;;;4986798;28;20474;-69
2022/07/27 11:12:14;;;;;;;2.93;2.73;;;27.20;91.60;;;;;;5003730;28;20418;-70
2022/07/27 11:14:51;;;;;;;4.30;3.70;;;27.40;91.60;;;;;;5004370;28;20830;-69
2022/07/27 11:17:19;;;;;;;6.03;3.50;;;27.70;90.80;;;;;;5004886;28;20402;-70
2022/07/27 11:20:00;;;;;;;3.30;3.00;;;27.50;90.80;;;;;;5005100;28;20430;-70
2022/07/27 11:22:39;;;;;;;4.07;3.50;;;26.60;90.90;;;;;;5004844;28;20801;-70
2022/07/27 11:25:06;;;;;;;4.13;3.37;;;25.70;92.30;;;;;;5004471;28;20938;-70
2022/07/27 11:27:44;;;;;;;3.10;2.80;;;25.80;92.30;;;;;;5004363;28;20472;-70
2022/07/27 11:30:26;;;;;;;3.70;3.37;;;26.10;91.60;;;;;;5003875;28;20427;-68
2022/07/27 11:32:52;;;;;;;2.97;2.77;;;26.20;91.70;;;;;;5004518;28;20415;-69
2022/07/27 11:35:18;;;;;;;4.40;3.20;;;26.20;92.20;;;;;;5004220;28;20469;-68
2022/07/27 11:37:58;;;;;;;3.37;3.07;;;26.40;91.70;;;;;;5004660;28;20415;-71
2022/07/27 11:40:23;;;;;;;3.83;3.27;;;26.70;90.70;;;;;;5004611;28;20334;-70
2022/07/27 11:42:49;;;;;;;3.57;3.27;;;26.60;90.30;;;;;;5004249;28;20414;-70
2022/07/27 11:45:28;;;;;;;3.43;3.10;;;27.20;90.00;;;;;;5004395;28;20191;-70
2022/07/27 11:47:57;;;;;;;3.07;2.70;;;27.60;86.00;;;;;;5004811;28;20832;-69
2022/07/27 11:50:22;;;;;;;4.33;2.30;;;27.90;85.30;;;;;;5004232;28;21094;-69
2022/07/27 11:52:56;;;;;;;3.17;2.20;;;28.80;80.00;;;;;;5004169;28;20484;-69
2022/07/27 11:55:22;;;;;;;5.23;2.17;;;31.00;72.00;;;;;;5004140;28;20172;-69
2022/07/27 11:57:47;;;;;;;2.23;2.07;;;32.30;67.50;;;;;;5003900;28;20498;-68
2022/07/27 12:00:13;;;;;;;2.77;2.57;;;34.00;62.10;;;;;;5003894;28;20279;-70
2022/07/27 12:02:48;;;;;;;3.00;2.47;;;33.70;59.10;;;;;;5004259;28;20176;-69
2022/07/27 12:05:14;;;;;;;3.97;2.53;;;32.70;60.70;;;;;;5034359;22;20235;-68
2022/07/27 12:07:40;;;;;;;2.63;2.20;;;30.40;65.00;;;;;;5004090;28;20476;-68
2022/07/27 12:10:06;;;;;;;2.60;2.40;;;28.30;70.20;;;;;;5004083;28;20715;-68
2022/07/27 12:12:34;;;;;;;5.00;2.33;;;27.10;75.50;;;;;;5003646;28;20498;-68
2022/07/27 12:15:02;;;;;;;6.63;2.60;;;27.00;77.30;;;;;;5003800;28;20419;-68
2022/07/27 12:17:36;;;;;;;2.50;2.30;;;26.60;78.40;;;;;;5004025;28;20415;-69
2022/07/27 12:20:07;;;;;;;3.90;3.03;;;26.30;80.00;;;;;;5003691;28;20415;-68
2022/07/27 12:22:42;;;;;;;4.50;2.93;;;26.90;79.00;;;;;;5003873;28;20442;-68
2022/07/27 12:25:16;;;;;;;2.73;2.53;;;27.30;77.40;;;;;;5004039;28;20525;-70
2022/07/27 12:28:10;;;;;;;5.30;3.50;;;27.40;78.10;;;;;;5003679;28;20821;-67
2022/07/27 12:30:35;;;;;;;2.40;2.23;;;27.90;75.60;;;;;;5003947;28;20502;-69
2022/07/27 12:33:03;;;;;;;2.50;2.27;;;28.80;73.50;;;;;;5003992;28;20433;-68
2022/07/27 12:35:47;;;;;;;2.37;2.17;;;30.10;70.50;;;;;;5004780;28;20196;-69
2022/07/27 12:38:16;;;;;;;2.70;2.20;;;30.50;69.20;;;;;;5009014;28;20409;-69
2022/07/27 12:40:56;;;;;;;2.87;2.30;;;30.90;65.70;;;;;;5007709;28;20450;-69
2022/07/27 12:43:24;;;;;;;2.67;2.43;;;29.60;68.60;;;;;;5007453;28;20407;-69
2022/07/27 12:45:51;;;;;;;2.70;2.23;;;29.20;68.90;;;;;;5007207;28;20414;-68
2022/07/27 12:48:24;;;;;;;3.00;1.83;;;29.10;70.60;;;;;;5007178;28;20529;-67
2022/07/27 12:50:58;;;;;;;2.10;1.93;;;29.20;67.90;;;;;;5007511;28;20438;-67
2022/07/27 12:53:24;;;;;;;2.10;1.90;;;29.60;66.80;;;;;;5008028;28;20527;-69
2022/07/27 12:55:49;;;;;;;3.93;2.60;;;29.30;67.20;;;;;;5008166;28;20474;-68